Pagrindinis puslapis
METAR-TAF:

METAR-TAF

Oro uostai :

Chugiak, Aliaska, Jungtinės Amerikos Valstijos

platuma: 61-25N, ilguma: 149-31W, Aukštis: 29 m

Dabartinis oras

Ataskaita buvo paskelbta 54 minutes, ne 08:56 UTC
Ramus vėjas
Temperatūra 11°C
Drėgmė 82%
Slėgis 1007 hPa
Matomumas: 16.1 km
Su prošvaistėmis ne aukštis 3300 ft
Su prošvaistėmis ne aukštis 4100 ft
Apsiniaukę ne aukštis 5000 ft

METAR: PABV 310856Z AUTO 00000KT 10SM BKN033 BKN041 OVC050 11/08 A2975 RMK AO2 RAB29E42 SLP079 P0000 60000 T01110083 401670089 51005

Laikas: 01:50 (09:50 UTC)


TAF: trūkstamas

Orai ataskaitas ir orų prognozės (METAR, TAF).

turimą stotys yra geltonos ir raudonos taškus žemėlapyje.

Perkelti pele per norėdami pamatyti stoties vardą.

Tada spustelėkite, norėdami matyti oro stebėjimo ir prognozės.

Norėdami pakeisti žemėlapį: spustelėkite ant žalios mygtukų su juodo kryžiaus žemyn,; žalią mygtuką su brūkšneliu, jei norite nutolinti; arba žalių rodyklių gretimoms žemėlapius.


METAR-TAF: